< < Back
Terminal Aerodrome Forecast


Current Version              Previous Versions:   1  2  3  4  5  6  7  8  9  

Terminal Aerodrome Forecast

001
FTUS42 KFFC 240500
TAFPDK
TAF
KPDK 240525Z 2406/2506 32003KT P6SM BKN250
     FM241600 32003KT P6SM SCT150=



Latest METAR

403
SAUS70 KWBC 250400 RRK
MTRPDK
METAR KPDK 250353Z AUTO 00000KT 10SM CLR 09/06 A3004 RMK AO2 SLP169
T00940056 $


USA.gov is the U.S. government's official web portal to all federal, state and local government web resources and services.